Time,TemperatureF,DewpointF,PressureIn,WindDirection,WindDirectionDegrees,WindSpeedMPH,WindSpeedGustMPH,Humidity,HourlyPrecipIn,Conditions,Clouds,dailyrainin,SoftwareType,DateUTC
2013-09-14 00:13:00,78.0,63.0,29.76,SW,235,1.0,4.0,60,0.00,,,0.00,,2013-09-14 05:13:00,
2013-09-14 00:22:00,77.0,63.0,29.76,WSW,248,1.0,5.0,62,0.00,,,0.00,,2013-09-14 05:22:00,
2013-09-14 00:52:00,77.0,65.0,29.75,WSW,249,2.0,6.0,66,0.00,,,0.00,,2013-09-14 05:52:00,
2013-09-14 01:12:00,77.0,66.0,29.75,West,263,2.0,6.0,68,0.00,,,0.00,,2013-09-14 06:12:00,
2013-09-14 01:21:00,76.0,65.0,29.75,SW,226,2.0,5.0,70,0.00,,,0.00,,2013-09-14 06:21:00,
2013-09-14 01:42:00,76.0,65.0,29.75,WSW,242,1.0,5.0,70,0.00,,,0.00,,2013-09-14 06:42:00,
2013-09-14 01:52:00,76.0,65.0,29.75,WSW,257,2.0,6.0,70,0.00,,,0.00,,2013-09-14 06:52:00,
2013-09-14 02:12:00,76.0,65.0,29.74,WSW,238,2.0,5.0,69,0.00,,,0.00,,2013-09-14 07:12:00,
2013-09-14 02:21:00,75.0,64.0,29.75,SW,235,2.0,6.0,69,0.00,,,0.00,,2013-09-14 07:21:00,
2013-09-14 02:52:00,75.0,65.0,29.75,WSW,243,0.0,4.0,70,0.00,,,0.00,,2013-09-14 07:52:00,
2013-09-14 03:12:00,74.0,64.0,29.75,SW,232,0.0,2.0,71,0.00,,,0.00,,2013-09-14 08:12:00,
2013-09-14 03:22:00,73.0,63.0,29.75,SW,224,0.0,2.0,71,0.00,,,0.00,,2013-09-14 08:22:00,
2013-09-14 03:42:00,73.0,63.0,29.75,SW,224,0.0,1.0,72,0.00,,,0.00,,2013-09-14 08:42:00,
2013-09-14 03:52:00,73.0,63.0,29.75,SW,224,0.0,1.0,72,0.00,,,0.00,,2013-09-14 08:52:00,
2013-09-14 04:12:00,73.0,64.0,29.75,SW,224,0.0,1.0,73,0.00,,,0.00,,2013-09-14 09:12:00,
2013-09-14 04:21:00,73.0,64.0,29.75,SW,224,0.0,0.0,74,0.00,,,0.00,,2013-09-14 09:21:00,
2013-09-14 04:43:00,72.0,64.0,29.74,SW,224,0.0,1.0,75,0.00,,,0.00,,2013-09-14 09:43:00,
2013-09-14 04:54:00,70.0,62.0,29.74,SW,224,0.0,0.0,76,0.00,,,0.00,,2013-09-14 09:54:00,
2013-09-14 05:12:00,70.0,63.0,29.74,SW,224,0.0,0.0,78,0.00,,,0.00,,2013-09-14 10:12:00,
2013-09-14 05:23:00,70.0,62.0,29.75,SW,224,0.0,0.0,77,0.00,,,0.00,,2013-09-14 10:23:00,
2013-09-14 05:53:00,70.0,63.0,29.75,SW,224,0.0,0.0,79,0.00,,,0.00,,2013-09-14 10:53:00,
2013-09-14 06:12:00,70.0,63.0,29.75,SW,224,0.0,0.0,79,0.00,,,0.00,,2013-09-14 11:12:00,
2013-09-14 06:22:00,69.0,63.0,29.75,SW,224,0.0,0.0,81,0.00,,,0.00,,2013-09-14 11:22:00,
2013-09-14 06:52:00,69.0,63.0,29.77,SW,224,0.0,0.0,81,0.00,,,0.00,,2013-09-14 11:52:00,
2013-09-14 07:12:00,70.0,63.0,29.77,SW,224,0.0,0.0,78,0.00,,,0.00,,2013-09-14 12:12:00,
2013-09-14 07:22:00,70.0,63.0,29.77,SW,224,0.0,0.0,78,0.00,,,0.00,,2013-09-14 12:22:00,
2013-09-14 07:52:00,70.0,63.0,29.78,SW,224,0.0,0.0,79,0.00,,,0.00,,2013-09-14 12:52:00,
2013-09-14 08:12:00,71.0,64.0,29.78,SE,145,0.0,0.0,78,0.00,,,0.00,,2013-09-14 13:12:00,
2013-09-14 08:21:00,71.0,64.0,29.78,SE,145,0.0,0.0,78,0.00,,,0.00,,2013-09-14 13:21:00,
2013-09-14 08:42:00,72.0,64.0,29.79,SE,145,0.0,0.0,77,0.00,,,0.00,,2013-09-14 13:42:00,
2013-09-14 08:52:00,72.0,64.0,29.79,SE,145,0.0,0.0,76,0.00,,,0.00,,2013-09-14 13:52:00,
2013-09-14 09:52:00,79.0,67.0,29.80,ESE,114,1.0,3.0,66,0.00,,,0.00,,2013-09-14 14:52:00,
2013-09-14 10:22:00,83.0,65.0,29.81,ESE,106,0.0,3.0,54,0.00,,,0.00,,2013-09-14 15:22:00,
2013-09-14 10:53:00,86.0,61.0,29.82,SSE,165,2.0,6.0,43,0.00,,,0.00,,2013-09-14 15:53:00,
2013-09-14 11:13:00,86.0,61.0,29.82,WSW,242,1.0,7.0,43,0.00,,,0.00,,2013-09-14 16:13:00,
2013-09-14 11:23:00,88.0,62.0,29.82,SE,135,1.0,7.0,42,0.00,,,0.00,,2013-09-14 16:23:00,
2013-09-14 11:54:00,89.0,61.0,29.81,South,190,2.0,6.0,39,0.00,,,0.00,,2013-09-14 16:54:00,
2013-09-14 12:11:00,90.0,62.0,29.81,SSW,193,2.0,9.0,39,0.00,,,0.00,,2013-09-14 17:11:00,
2013-09-14 12:23:00,89.0,61.0,29.81,SSE,165,3.0,13.0,40,0.00,,,0.00,,2013-09-14 17:23:00,
2013-09-14 12:54:00,91.0,62.0,29.80,SSW,203,2.0,9.0,38,0.00,,,0.00,,2013-09-14 17:54:00,
2013-09-14 13:12:00,91.0,62.0,29.80,SSW,204,3.0,8.0,38,0.00,,,0.00,,2013-09-14 18:12:00,
2013-09-14 13:22:00,91.0,63.0,29.79,SW,226,2.0,12.0,39,0.00,,,0.00,,2013-09-14 18:22:00,
2013-09-14 13:43:00,92.0,63.0,29.78,SSW,201,2.0,6.0,39,0.00,,,0.00,,2013-09-14 18:43:00,
2013-09-14 13:52:00,91.0,64.0,29.78,SSW,197,4.0,11.0,41,0.00,,,0.00,,2013-09-14 18:52:00,
2013-09-14 14:11:00,91.0,65.0,29.78,SSE,157,6.0,12.0,42,0.00,,,0.00,,2013-09-14 19:11:00,
2013-09-14 14:22:00,90.0,65.0,29.77,South,188,3.0,11.0,44,0.00,,,0.00,,2013-09-14 19:22:00,
2013-09-14 14:42:00,90.0,66.0,29.76,SW,234,3.0,13.0,45,0.00,,,0.00,,2013-09-14 19:42:00,
2013-09-14 14:52:00,89.0,65.0,29.76,SSW,210,3.0,10.0,46,0.00,,,0.00,,2013-09-14 19:52:00,
2013-09-14 15:12:00,90.0,66.0,29.75,South,190,2.0,14.0,45,0.00,,,0.00,,2013-09-14 20:12:00,
2013-09-14 15:22:00,92.0,66.0,29.74,South,170,5.0,13.0,42,0.00,,,0.00,,2013-09-14 20:22:00,
2013-09-14 15:52:00,92.0,66.0,29.73,SE,129,7.0,16.0,43,0.00,,,0.00,,2013-09-14 20:52:00,
2013-09-14 16:11:00,90.0,65.0,29.73,SSE,154,6.0,17.0,44,0.00,,,0.00,,2013-09-14 21:11:00,
2013-09-14 16:22:00,91.0,66.0,29.72,SE,125,3.0,11.0,44,0.00,,,0.00,,2013-09-14 21:22:00,
2013-09-14 16:44:00,91.0,66.0,29.72,SE,127,4.0,11.0,44,0.00,,,0.00,,2013-09-14 21:44:00,
2013-09-14 16:54:00,91.0,67.0,29.72,SE,142,5.0,12.0,45,0.00,,,0.00,,2013-09-14 21:54:00,
2013-09-14 17:13:00,91.0,66.0,29.72,South,183,5.0,14.0,44,0.00,,,0.00,,2013-09-14 22:13:00,
2013-09-14 17:24:00,90.0,66.0,29.71,SE,146,3.0,10.0,46,0.00,,,0.00,,2013-09-14 22:24:00,
2013-09-14 17:34:00,90.0,66.0,29.71,SE,146,3.0,10.0,46,0.00,,,0.00,,2013-09-14 22:34:00,
2013-09-14 17:42:00,90.0,66.0,29.71,SE,146,3.0,10.0,46,0.00,,,0.00,,2013-09-14 22:42:00,
2013-09-14 17:53:00,89.0,65.0,29.72,East,101,5.0,10.0,46,0.00,,,0.00,,2013-09-14 22:53:00,
2013-09-14 18:11:00,90.0,66.0,29.72,SE,141,3.0,8.0,45,0.00,,,0.00,,2013-09-14 23:11:00,
2013-09-14 18:23:00,90.0,66.0,29.72,SE,144,3.0,10.0,46,0.00,,,0.00,,2013-09-14 23:23:00,
2013-09-14 18:53:00,89.0,66.0,29.72,SSW,197,1.0,6.0,47,0.00,,,0.00,,2013-09-14 23:53:00,
2013-09-14 19:12:00,88.0,65.0,29.72,SSW,203,1.0,5.0,47,0.00,,,0.00,,2013-09-15 00:12:00,
2013-09-14 19:22:00,88.0,66.0,29.73,SSE,154,1.0,8.0,48,0.00,,,0.00,,2013-09-15 00:22:00,
2013-09-14 19:42:00,87.0,65.0,29.73,South,176,1.0,5.0,49,0.00,,,0.00,,2013-09-15 00:42:00,
2013-09-14 19:53:00,87.0,67.0,29.73,SSW,193,2.0,6.0,51,0.00,,,0.00,,2013-09-15 00:53:00,
2013-09-14 20:11:00,86.0,66.0,29.74,SSW,194,0.0,4.0,52,0.00,,,0.00,,2013-09-15 01:11:00,
2013-09-14 20:22:00,85.0,66.0,29.74,South,184,0.0,3.0,53,0.00,,,0.00,,2013-09-15 01:22:00,
2013-09-14 20:42:00,84.0,66.0,29.75,SSW,198,1.0,2.0,55,0.00,,,0.00,,2013-09-15 01:42:00,
2013-09-14 20:52:00,84.0,67.0,29.75,WSW,243,1.0,4.0,57,0.00,,,0.00,,2013-09-15 01:52:00,
2013-09-14 21:12:00,84.0,68.0,29.76,South,177,1.0,6.0,58,0.00,,,0.00,,2013-09-15 02:12:00,
2013-09-14 21:22:00,83.0,68.0,29.77,SSW,197,2.0,8.0,60,0.00,,,0.00,,2013-09-15 02:22:00,
2013-09-14 21:42:00,82.0,67.0,29.78,SE,141,3.0,7.0,61,0.00,,,0.00,,2013-09-15 02:42:00,
2013-09-14 21:52:00,81.0,68.0,29.78,SSW,198,3.0,8.0,64,0.00,,,0.00,,2013-09-15 02:52:00,
2013-09-14 22:11:00,80.0,68.0,29.79,SSW,211,2.0,8.0,67,0.00,,,0.00,,2013-09-15 03:11:00,
2013-09-14 22:22:00,80.0,68.0,29.79,SSW,211,2.0,8.0,67,0.00,,,0.00,,2013-09-15 03:22:00,
2013-09-14 22:55:00,78.0,69.0,29.80,WSW,238,1.0,7.0,73,0.00,,,0.00,,2013-09-15 03:55:00,
2013-09-14 23:02:00,-999.0,-99.9,29.81,WSW,252,1.0,5.0,-999,-99.99,,,-99.99,,2013-09-15 04:02:00,
2013-09-14 23:14:00,78.0,69.0,29.81,WSW,252,1.0,5.0,74,0.00,,,0.00,,2013-09-15 04:14:00,
2013-09-14 23:24:00,77.0,68.0,29.81,SW,235,2.0,5.0,75,0.00,,,0.00,,2013-09-15 04:24:00,
2013-09-14 23:54:00,77.0,69.0,29.81,West,267,1.0,6.0,77,0.00,,,0.00,,2013-09-15 04:54:00,